»·PEaware :: N128LV L71-KLAX

N128LV :: L71-KLAX

FLIGHT INFORMATION

Flight Status: Arrived
Operator: Privately registered:
United States
More flights under this callsign
Pilot: Matthew M. (2702)
Aircraft: BEECH AIRCRAFT SUPER KING AIR COMMUTER
(BE20)
More flights by this aircraft type
Origin: L71 California City Mun
United States
Destination: KLAX Los Angeles Intl
United States
More flights between these airports :: More routes between these airports
Route: PMD KIMMO2
File this flight plan on PilotEdge
Remarks: / V /
Altitude:
(Current/Filed)
9,000ft
Speed:
(Current/Filed)
240kts
Departed: 17-Jan-14 03:51 PM
Arrived: 17-Jan-14 04:20 PM
Distance/Time
Traveled:
75nm/0:29
Distance/Time
To Go:
Arrived

Flight Plot

Page will automatically refresh every two minutes.


Map Options




Map Legend


Flown Route
Filed Route
Departure Airport
Arrival Airport
Navaid (VOR, NDB)
Fix

Horizontal Profiles

Position Reports

Time Latitude Longitude Heading Altitude Ground
Speed
17-Jan-14 15:18 35.150177 -118.014771 71 2459ft 0kts
17-Jan-14 15:19 35.150177 -118.014769 71 2459ft 0kts
17-Jan-14 15:20 35.150177 -118.014768 71 2459ft 0kts
17-Jan-14 15:21 35.150178 -118.014766 71 2459ft 0kts
17-Jan-14 15:22 35.150178 -118.014765 71 2459ft 0kts
17-Jan-14 15:23 35.150179 -118.014764 71 2459ft 0kts
17-Jan-14 15:24 35.150179 -118.014762 71 2459ft 0kts
17-Jan-14 15:25 35.150179 -118.014761 71 2459ft 0kts
17-Jan-14 15:26 35.150180 -118.014759 71 2459ft 0kts
17-Jan-14 15:27 35.150180 -118.014758 71 2459ft 0kts
17-Jan-14 15:28 35.150180 -118.014757 71 2459ft 0kts
17-Jan-14 15:29 35.150181 -118.014755 71 2459ft 0kts
17-Jan-14 15:30 35.150226 -118.014598 67 2459ft 9kts
17-Jan-14 15:31 35.152445 -118.008667 75 2459ft 31kts
17-Jan-14 15:32 35.152901 -118.006945 286 2459ft 0kts
17-Jan-14 15:33 35.152903 -118.006952 286 2459ft 0kts
17-Jan-14 15:34 35.152904 -118.006958 286 2459ft 0kts
17-Jan-14 15:35 35.152905 -118.006963 286 2459ft 0kts
17-Jan-14 15:36 35.152906 -118.006967 286 2459ft 0kts
17-Jan-14 15:37 35.152907 -118.006970 286 2459ft 0kts
17-Jan-14 15:38 35.152908 -118.006972 286 2459ft 0kts
17-Jan-14 15:39 35.152909 -118.006978 286 2459ft 0kts
17-Jan-14 15:40 35.152911 -118.006985 286 2459ft 0kts
17-Jan-14 15:41 35.152912 -118.006991 286 2459ft 0kts
17-Jan-14 15:42 35.152913 -118.006995 286 2459ft 0kts
17-Jan-14 15:43 35.152914 -118.006997 286 2459ft 0kts
17-Jan-14 15:44 35.152914 -118.006998 286 2459ft 0kts
17-Jan-14 15:45 35.152914 -118.006999 286 2459ft 0kts
17-Jan-14 15:47 35.153031 -118.007038 19 2459ft 0kts
17-Jan-14 15:48 35.149899 -118.022948 254 2487ft 125kts
17-Jan-14 15:49 35.134238 -118.070118 200 3740ft 173kts
17-Jan-14 15:50 35.083692 -118.071709 178 5288ft 189kts
17-Jan-14 15:51 35.031055 -118.060221 159 6794ft 198kts
17-Jan-14 15:52 34.976517 -118.045774 183 8303ft 202kts
17-Jan-14 15:53 34.917120 -118.047124 185 9000ft 232kts
17-Jan-14 15:54 34.860579 -118.048556 185 9001ft 250kts
17-Jan-14 15:55 34.777885 -118.051081 188 9000ft 254kts
17-Jan-14 15:56 34.719549 -118.057971 190 8999ft 252kts
17-Jan-14 15:57 34.649214 -118.064706 187 8999ft 253kts
17-Jan-14 15:58 34.584244 -118.115339 230 9000ft 240kts
17-Jan-14 15:59 34.550927 -118.169123 241 9000ft 236kts
17-Jan-14 16:00 34.518274 -118.236118 241 8999ft 226kts
17-Jan-14 16:01 34.482824 -118.298881 234 8999ft 225kts
17-Jan-14 16:02 34.446242 -118.360419 237 8999ft 224kts
17-Jan-14 16:03 34.408256 -118.420273 220 8995ft 223kts
17-Jan-14 16:04 34.349919 -118.401456 149 8746ft 240kts
17-Jan-14 16:05 34.293796 -118.356523 148 7745ft 241kts
17-Jan-14 16:06 34.237588 -118.314312 148 7024ft 228kts
17-Jan-14 16:07 34.186257 -118.276525 148 6996ft 206kts
17-Jan-14 16:08 34.136186 -118.246454 170 6762ft 200kts
17-Jan-14 16:09 34.086347 -118.216263 149 5764ft 199kts
17-Jan-14 16:10 34.039387 -118.182786 149 4761ft 192kts
17-Jan-14 16:11 33.993202 -118.149752 151 3759ft 195kts
17-Jan-14 16:12 33.964935 -118.184035 281 2742ft 183kts
17-Jan-14 16:13 33.971184 -118.236766 264 2479ft 135kts
17-Jan-14 16:14 33.964704 -118.280955 259 2206ft 141kts
17-Jan-14 16:15 33.959324 -118.330693 263 1351ft 155kts
17-Jan-14 16:16 33.954416 -118.378559 262 529ft 130kts
17-Jan-14 16:17 33.951103 -118.411261 161 131ft 10kts
17-Jan-14 16:18 33.950081 -118.410882 172 131ft 0kts
17-Jan-14 16:19 33.948252 -118.410750 227 131ft 8kts
17-Jan-14 16:20 33.947225 -118.411949 176 131ft 14kts
17-Jan-14 16:21 33.941097 -118.411088 175 131ft 19kts
17-Jan-14 16:22 33.938030 -118.410562 144 131ft 12kts
17-Jan-14 16:23 33.935097 -118.408712 173 131ft 20kts
17-Jan-14 16:24 33.933961 -118.404111 82 131ft 22kts
17-Jan-14 16:25 33.934194 -118.397999 139 131ft 11kts
17-Jan-14 16:26 33.933786 -118.396855 257 131ft 0kts
17-Jan-14 16:27 33.933786 -118.396856 257 131ft 0kts
17-Jan-14 16:28 33.933786 -118.396856 257 131ft 0kts
17-Jan-14 16:29 33.933786 -118.396856 257 131ft 0kts
17-Jan-14 16:30 33.933786 -118.396856 257 131ft 0kts
17-Jan-14 16:31 33.933786 -118.396856 257 131ft 0kts

Navigation Log

Ident Type
1. L71 Airport
2. PMD Navaid
3. BOGET Fix
4. KIMMO Fix
5. DARTS Fix
6. PURMS Fix
7. KLAX Airport